sensor_id;sensor_type;location;lat;lon;timestamp;P1;durP1;ratioP1;P2;durP2;ratioP2
19038;SDS011;9652;49.014;12.052;2022-10-16T00:01:15;2.63;;;2.40;;
19038;SDS011;9652;49.014;12.052;2022-10-16T00:03:45;2.80;;;2.50;;
19038;SDS011;9652;49.014;12.052;2022-10-16T00:06:14;4.07;;;3.03;;
19038;SDS011;9652;49.014;12.052;2022-10-16T00:08:43;3.07;;;2.73;;
19038;SDS011;9652;49.014;12.052;2022-10-16T00:11:12;2.93;;;2.63;;
19038;SDS011;9652;49.014;12.052;2022-10-16T00:13:47;5.37;;;2.77;;
19038;SDS011;9652;49.014;12.052;2022-10-16T00:16:17;7.87;;;2.43;;
19038;SDS011;9652;49.014;12.052;2022-10-16T00:18:44;2.73;;;2.53;;
19038;SDS011;9652;49.014;12.052;2022-10-16T00:21:14;4.27;;;2.73;;
19038;SDS011;9652;49.014;12.052;2022-10-16T00:23:43;2.97;;;2.47;;
19038;SDS011;9652;49.014;12.052;2022-10-16T00:26:12;2.70;;;2.33;;
19038;SDS011;9652;49.014;12.052;2022-10-16T00:28:44;2.67;;;2.47;;
19038;SDS011;9652;49.014;12.052;2022-10-16T00:31:12;3.97;;;2.50;;
19038;SDS011;9652;49.014;12.052;2022-10-16T00:33:40;3.57;;;2.53;;
19038;SDS011;9652;49.014;12.052;2022-10-16T00:36:09;3.60;;;3.03;;
19038;SDS011;9652;49.014;12.052;2022-10-16T00:38:39;2.87;;;2.40;;
19038;SDS011;9652;49.014;12.052;2022-10-16T00:41:07;3.40;;;2.67;;
19038;SDS011;9652;49.014;12.052;2022-10-16T00:43:38;6.73;;;2.37;;
19038;SDS011;9652;49.014;12.052;2022-10-16T00:46:17;4.03;;;2.73;;
19038;SDS011;9652;49.014;12.052;2022-10-16T00:48:48;5.63;;;2.90;;
19038;SDS011;9652;49.014;12.052;2022-10-16T00:51:21;2.83;;;2.30;;
19038;SDS011;9652;49.014;12.052;2022-10-16T00:53:59;2.73;;;2.43;;
19038;SDS011;9652;49.014;12.052;2022-10-16T00:56:29;3.33;;;2.60;;
19038;SDS011;9652;49.014;12.052;2022-10-16T00:58:57;4.00;;;2.80;;
19038;SDS011;9652;49.014;12.052;2022-10-16T01:01:29;4.30;;;3.17;;
19038;SDS011;9652;49.014;12.052;2022-10-16T01:03:56;2.40;;;2.20;;
19038;SDS011;9652;49.014;12.052;2022-10-16T01:06:23;2.83;;;2.60;;
19038;SDS011;9652;49.014;12.052;2022-10-16T01:09:06;2.80;;;2.50;;
19038;SDS011;9652;49.014;12.052;2022-10-16T01:11:49;3.33;;;3.00;;
19038;SDS011;9652;49.014;12.052;2022-10-16T01:14:28;3.13;;;2.83;;
19038;SDS011;9652;49.014;12.052;2022-10-16T01:17:09;4.47;;;2.70;;
19038;SDS011;9652;49.014;12.052;2022-10-16T01:19:44;5.03;;;3.10;;
19038;SDS011;9652;49.014;12.052;2022-10-16T01:22:33;3.27;;;2.50;;
19038;SDS011;9652;49.014;12.052;2022-10-16T01:25:11;4.47;;;2.63;;
19038;SDS011;9652;49.014;12.052;2022-10-16T01:27:53;6.63;;;2.80;;
19038;SDS011;9652;49.014;12.052;2022-10-16T01:30:22;2.80;;;2.50;;
19038;SDS011;9652;49.014;12.052;2022-10-16T01:32:55;4.33;;;3.03;;
19038;SDS011;9652;49.014;12.052;2022-10-16T01:35:30;5.27;;;3.37;;
19038;SDS011;9652;49.014;12.052;2022-10-16T01:38:02;3.90;;;3.37;;
19038;SDS011;9652;49.014;12.052;2022-10-16T01:40:36;3.43;;;2.90;;
19038;SDS011;9652;49.014;12.052;2022-10-16T01:43:12;5.60;;;3.23;;
19038;SDS011;9652;49.014;12.052;2022-10-16T01:45:45;2.97;;;2.70;;
19038;SDS011;9652;49.014;12.052;2022-10-16T01:48:13;4.47;;;2.97;;
19038;SDS011;9652;49.014;12.052;2022-10-16T01:50:49;5.30;;;3.10;;
19038;SDS011;9652;49.014;12.052;2022-10-16T01:53:22;4.97;;;3.30;;
19038;SDS011;9652;49.014;12.052;2022-10-16T01:55:52;3.17;;;2.87;;
19038;SDS011;9652;49.014;12.052;2022-10-16T01:58:24;4.43;;;2.90;;
19038;SDS011;9652;49.014;12.052;2022-10-16T02:00:55;4.63;;;2.93;;
19038;SDS011;9652;49.014;12.052;2022-10-16T02:03:24;4.97;;;3.57;;
19038;SDS011;9652;49.014;12.052;2022-10-16T02:05:51;7.40;;;3.90;;
19038;SDS011;9652;49.014;12.052;2022-10-16T02:08:22;4.17;;;2.97;;
19038;SDS011;9652;49.014;12.052;2022-10-16T02:10:54;4.57;;;3.07;;
19038;SDS011;9652;49.014;12.052;2022-10-16T02:13:26;2.90;;;2.70;;
19038;SDS011;9652;49.014;12.052;2022-10-16T02:15:57;4.10;;;2.97;;
19038;SDS011;9652;49.014;12.052;2022-10-16T02:18:25;4.50;;;3.00;;
19038;SDS011;9652;49.014;12.052;2022-10-16T02:20:55;2.90;;;2.67;;
19038;SDS011;9652;49.014;12.052;2022-10-16T02:23:30;6.10;;;2.80;;
19038;SDS011;9652;49.014;12.052;2022-10-16T02:26:11;3.60;;;2.63;;
19038;SDS011;9652;49.014;12.052;2022-10-16T02:28:46;3.77;;;2.77;;
19038;SDS011;9652;49.014;12.052;2022-10-16T02:31:22;3.43;;;3.13;;
19038;SDS011;9652;49.014;12.052;2022-10-16T02:33:54;3.67;;;2.87;;
19038;SDS011;9652;49.014;12.052;2022-10-16T02:36:26;3.93;;;2.90;;
19038;SDS011;9652;49.014;12.052;2022-10-16T02:38:53;3.73;;;3.10;;
19038;SDS011;9652;49.014;12.052;2022-10-16T02:41:21;3.13;;;2.83;;
19038;SDS011;9652;49.014;12.052;2022-10-16T02:43:51;4.17;;;3.40;;
19038;SDS011;9652;49.014;12.052;2022-10-16T02:46:20;3.13;;;2.83;;
19038;SDS011;9652;49.014;12.052;2022-10-16T02:48:47;4.07;;;2.73;;
19038;SDS011;9652;49.014;12.052;2022-10-16T02:51:15;3.37;;;2.93;;
19038;SDS011;9652;49.014;12.052;2022-10-16T02:53:42;4.37;;;2.83;;
19038;SDS011;9652;49.014;12.052;2022-10-16T02:56:09;3.80;;;2.83;;
19038;SDS011;9652;49.014;12.052;2022-10-16T02:58:36;5.37;;;2.50;;
19038;SDS011;9652;49.014;12.052;2022-10-16T03:01:04;3.20;;;2.67;;
19038;SDS011;9652;49.014;12.052;2022-10-16T03:03:31;2.97;;;2.67;;
19038;SDS011;9652;49.014;12.052;2022-10-16T03:05:58;3.13;;;2.70;;
19038;SDS011;9652;49.014;12.052;2022-10-16T03:08:26;6.53;;;2.97;;
19038;SDS011;9652;49.014;12.052;2022-10-16T03:10:53;3.33;;;3.03;;
19038;SDS011;9652;49.014;12.052;2022-10-16T03:13:20;3.20;;;2.90;;
19038;SDS011;9652;49.014;12.052;2022-10-16T03:15:47;4.30;;;2.60;;
19038;SDS011;9652;49.014;12.052;2022-10-16T03:18:16;3.00;;;2.60;;
19038;SDS011;9652;49.014;12.052;2022-10-16T03:20:43;4.10;;;3.00;;
19038;SDS011;9652;49.014;12.052;2022-10-16T03:23:10;2.60;;;2.40;;
19038;SDS011;9652;49.014;12.052;2022-10-16T03:25:38;5.67;;;2.80;;
19038;SDS011;9652;49.014;12.052;2022-10-16T03:28:06;3.47;;;3.17;;
19038;SDS011;9652;49.014;12.052;2022-10-16T03:30:33;3.00;;;2.70;;
19038;SDS011;9652;49.014;12.052;2022-10-16T03:33:00;5.03;;;2.67;;
19038;SDS011;9652;49.014;12.052;2022-10-16T03:35:29;3.23;;;2.70;;
19038;SDS011;9652;49.014;12.052;2022-10-16T03:37:56;2.67;;;2.33;;
19038;SDS011;9652;49.014;12.052;2022-10-16T03:40:23;3.00;;;2.70;;
19038;SDS011;9652;49.014;12.052;2022-10-16T03:42:51;2.80;;;2.60;;
19038;SDS011;9652;49.014;12.052;2022-10-16T03:45:20;3.73;;;2.37;;
19038;SDS011;9652;49.014;12.052;2022-10-16T03:47:47;5.90;;;3.00;;
19038;SDS011;9652;49.014;12.052;2022-10-16T03:50:14;3.00;;;2.70;;
19038;SDS011;9652;49.014;12.052;2022-10-16T03:52:43;4.80;;;2.73;;
19038;SDS011;9652;49.014;12.052;2022-10-16T03:55:10;4.47;;;2.70;;
19038;SDS011;9652;49.014;12.052;2022-10-16T03:57:37;3.13;;;2.83;;
19038;SDS011;9652;49.014;12.052;2022-10-16T04:00:05;4.67;;;2.60;;
19038;SDS011;9652;49.014;12.052;2022-10-16T04:02:37;3.53;;;2.53;;
19038;SDS011;9652;49.014;12.052;2022-10-16T04:05:04;3.00;;;2.50;;
19038;SDS011;9652;49.014;12.052;2022-10-16T04:07:32;3.07;;;2.63;;
19038;SDS011;9652;49.014;12.052;2022-10-16T04:10:01;4.80;;;2.43;;
19038;SDS011;9652;49.014;12.052;2022-10-16T04:12:29;2.80;;;2.60;;
19038;SDS011;9652;49.014;12.052;2022-10-16T04:14:56;5.50;;;2.73;;
19038;SDS011;9652;49.014;12.052;2022-10-16T04:17:23;2.43;;;2.10;;
19038;SDS011;9652;49.014;12.052;2022-10-16T04:19:50;4.17;;;3.10;;
19038;SDS011;9652;49.014;12.052;2022-10-16T04:22:18;3.93;;;2.60;;
19038;SDS011;9652;49.014;12.052;2022-10-16T04:24:45;2.90;;;2.67;;
19038;SDS011;9652;49.014;12.052;2022-10-16T04:27:13;4.93;;;2.67;;
19038;SDS011;9652;49.014;12.052;2022-10-16T04:29:40;3.47;;;2.83;;
19038;SDS011;9652;49.014;12.052;2022-10-16T04:32:07;4.10;;;3.70;;
19038;SDS011;9652;49.014;12.052;2022-10-16T04:34:35;4.00;;;2.80;;
19038;SDS011;9652;49.014;12.052;2022-10-16T04:37:03;3.30;;;2.53;;
19038;SDS011;9652;49.014;12.052;2022-10-16T04:39:30;2.80;;;2.60;;
19038;SDS011;9652;49.014;12.052;2022-10-16T04:41:57;3.37;;;2.77;;
19038;SDS011;9652;49.014;12.052;2022-10-16T04:44:26;5.13;;;2.67;;
19038;SDS011;9652;49.014;12.052;2022-10-16T04:46:53;3.77;;;2.67;;
19038;SDS011;9652;49.014;12.052;2022-10-16T04:49:20;4.57;;;2.90;;
19038;SDS011;9652;49.014;12.052;2022-10-16T04:51:47;6.17;;;2.60;;
19038;SDS011;9652;49.014;12.052;2022-10-16T04:54:14;3.33;;;2.67;;
19038;SDS011;9652;49.014;12.052;2022-10-16T04:56:41;6.43;;;3.00;;
19038;SDS011;9652;49.014;12.052;2022-10-16T04:59:12;3.10;;;2.50;;
19038;SDS011;9652;49.014;12.052;2022-10-16T05:01:41;4.77;;;2.90;;
19038;SDS011;9652;49.014;12.052;2022-10-16T05:04:09;3.37;;;2.97;;
19038;SDS011;9652;49.014;12.052;2022-10-16T05:06:36;2.77;;;2.47;;
19038;SDS011;9652;49.014;12.052;2022-10-16T05:09:04;6.60;;;2.60;;
19038;SDS011;9652;49.014;12.052;2022-10-16T05:11:31;4.30;;;2.50;;
19038;SDS011;9652;49.014;12.052;2022-10-16T05:13:59;3.17;;;2.60;;
19038;SDS011;9652;49.014;12.052;2022-10-16T05:16:26;3.43;;;2.63;;
19038;SDS011;9652;49.014;12.052;2022-10-16T05:18:55;3.97;;;2.90;;
19038;SDS011;9652;49.014;12.052;2022-10-16T05:21:22;3.30;;;2.50;;
19038;SDS011;9652;49.014;12.052;2022-10-16T05:23:49;3.77;;;2.83;;
19038;SDS011;9652;49.014;12.052;2022-10-16T05:26:16;2.50;;;2.30;;
19038;SDS011;9652;49.014;12.052;2022-10-16T05:28:43;6.13;;;2.73;;
19038;SDS011;9652;49.014;12.052;2022-10-16T05:31:10;3.20;;;2.90;;
19038;SDS011;9652;49.014;12.052;2022-10-16T05:33:38;3.10;;;2.30;;
19038;SDS011;9652;49.014;12.052;2022-10-16T05:36:07;4.07;;;3.00;;
19038;SDS011;9652;49.014;12.052;2022-10-16T05:38:36;3.07;;;2.77;;
19038;SDS011;9652;49.014;12.052;2022-10-16T05:41:04;2.60;;;2.40;;
19038;SDS011;9652;49.014;12.052;2022-10-16T05:43:32;2.67;;;2.33;;
19038;SDS011;9652;49.014;12.052;2022-10-16T05:46:00;2.53;;;2.33;;
19038;SDS011;9652;49.014;12.052;2022-10-16T05:48:29;2.43;;;2.23;;
19038;SDS011;9652;49.014;12.052;2022-10-16T05:50:58;4.40;;;2.57;;
19038;SDS011;9652;49.014;12.052;2022-10-16T05:53:28;4.27;;;2.70;;
19038;SDS011;9652;49.014;12.052;2022-10-16T05:55:57;2.90;;;2.20;;
19038;SDS011;9652;49.014;12.052;2022-10-16T05:58:27;3.17;;;2.50;;
19038;SDS011;9652;49.014;12.052;2022-10-16T06:00:58;2.60;;;2.40;;
19038;SDS011;9652;49.014;12.052;2022-10-16T06:03:29;4.80;;;2.23;;
19038;SDS011;9652;49.014;12.052;2022-10-16T06:05:56;2.77;;;2.50;;
19038;SDS011;9652;49.014;12.052;2022-10-16T06:08:23;4.50;;;2.60;;
19038;SDS011;9652;49.014;12.052;2022-10-16T06:11:01;7.10;;;2.70;;
19038;SDS011;9652;49.014;12.052;2022-10-16T06:13:29;3.93;;;2.40;;
19038;SDS011;9652;49.014;12.052;2022-10-16T06:15:56;4.80;;;2.47;;
19038;SDS011;9652;49.014;12.052;2022-10-16T06:18:25;3.43;;;2.77;;
19038;SDS011;9652;49.014;12.052;2022-10-16T06:20:53;3.00;;;2.17;;
19038;SDS011;9652;49.014;12.052;2022-10-16T06:23:21;6.00;;;2.63;;
19038;SDS011;9652;49.014;12.052;2022-10-16T06:25:49;3.20;;;2.90;;
19038;SDS011;9652;49.014;12.052;2022-10-16T06:28:17;6.23;;;2.77;;
19038;SDS011;9652;49.014;12.052;2022-10-16T06:30:45;2.80;;;2.60;;
19038;SDS011;9652;49.014;12.052;2022-10-16T06:33:12;2.60;;;2.40;;
19038;SDS011;9652;49.014;12.052;2022-10-16T06:35:39;3.03;;;2.60;;
19038;SDS011;9652;49.014;12.052;2022-10-16T06:38:06;2.60;;;2.40;;
19038;SDS011;9652;49.014;12.052;2022-10-16T06:40:34;3.00;;;2.70;;
19038;SDS011;9652;49.014;12.052;2022-10-16T06:43:01;4.90;;;2.63;;
19038;SDS011;9652;49.014;12.052;2022-10-16T06:45:29;2.70;;;2.50;;
19038;SDS011;9652;49.014;12.052;2022-10-16T06:47:57;2.90;;;2.50;;
19038;SDS011;9652;49.014;12.052;2022-10-16T06:50:24;2.90;;;2.67;;
19038;SDS011;9652;49.014;12.052;2022-10-16T06:52:51;3.80;;;2.90;;
19038;SDS011;9652;49.014;12.052;2022-10-16T06:55:18;2.97;;;2.37;;
19038;SDS011;9652;49.014;12.052;2022-10-16T06:57:46;5.50;;;2.50;;
19038;SDS011;9652;49.014;12.052;2022-10-16T07:00:14;2.80;;;2.60;;
19038;SDS011;9652;49.014;12.052;2022-10-16T07:02:43;3.20;;;2.87;;
19038;SDS011;9652;49.014;12.052;2022-10-16T07:05:10;3.10;;;2.80;;
19038;SDS011;9652;49.014;12.052;2022-10-16T07:07:38;3.40;;;3.07;;
19038;SDS011;9652;49.014;12.052;2022-10-16T07:10:05;2.63;;;2.43;;
19038;SDS011;9652;49.014;12.052;2022-10-16T07:12:34;3.00;;;2.70;;
19038;SDS011;9652;49.014;12.052;2022-10-16T07:15:01;2.70;;;2.50;;
19038;SDS011;9652;49.014;12.052;2022-10-16T07:17:29;3.10;;;2.47;;
19038;SDS011;9652;49.014;12.052;2022-10-16T07:19:58;3.27;;;2.97;;
19038;SDS011;9652;49.014;12.052;2022-10-16T07:22:25;10.23;;;5.70;;
19038;SDS011;9652;49.014;12.052;2022-10-16T07:24:55;9.20;;;4.87;;
19038;SDS011;9652;49.014;12.052;2022-10-16T07:27:22;4.57;;;3.37;;
19038;SDS011;9652;49.014;12.052;2022-10-16T07:29:51;5.47;;;3.57;;
19038;SDS011;9652;49.014;12.052;2022-10-16T07:32:19;5.33;;;3.53;;
19038;SDS011;9652;49.014;12.052;2022-10-16T07:34:46;4.30;;;3.20;;
19038;SDS011;9652;49.014;12.052;2022-10-16T07:37:15;3.30;;;2.90;;
19038;SDS011;9652;49.014;12.052;2022-10-16T07:39:43;4.33;;;2.50;;
19038;SDS011;9652;49.014;12.052;2022-10-16T07:42:11;4.23;;;3.17;;
19038;SDS011;9652;49.014;12.052;2022-10-16T07:44:38;4.27;;;3.47;;
19038;SDS011;9652;49.014;12.052;2022-10-16T07:47:06;5.50;;;3.07;;
19038;SDS011;9652;49.014;12.052;2022-10-16T07:49:33;3.73;;;3.00;;
19038;SDS011;9652;49.014;12.052;2022-10-16T07:52:00;3.37;;;2.80;;
19038;SDS011;9652;49.014;12.052;2022-10-16T07:54:29;3.33;;;3.03;;
19038;SDS011;9652;49.014;12.052;2022-10-16T07:56:57;4.40;;;2.87;;
19038;SDS011;9652;49.014;12.052;2022-10-16T07:59:24;2.90;;;2.47;;
19038;SDS011;9652;49.014;12.052;2022-10-16T08:01:51;2.63;;;2.43;;
19038;SDS011;9652;49.014;12.052;2022-10-16T08:04:19;4.63;;;2.60;;
19038;SDS011;9652;49.014;12.052;2022-10-16T08:06:46;2.80;;;2.43;;
19038;SDS011;9652;49.014;12.052;2022-10-16T08:09:14;2.70;;;2.50;;
19038;SDS011;9652;49.014;12.052;2022-10-16T08:11:43;2.40;;;2.20;;
19038;SDS011;9652;49.014;12.052;2022-10-16T08:14:10;2.40;;;2.10;;
19038;SDS011;9652;49.014;12.052;2022-10-16T08:16:37;2.67;;;1.83;;
19038;SDS011;9652;49.014;12.052;2022-10-16T08:19:05;2.93;;;2.47;;
19038;SDS011;9652;49.014;12.052;2022-10-16T08:21:32;2.30;;;2.03;;
19038;SDS011;9652;49.014;12.052;2022-10-16T08:23:59;2.43;;;2.10;;
19038;SDS011;9652;49.014;12.052;2022-10-16T08:26:26;3.37;;;2.50;;
19038;SDS011;9652;49.014;12.052;2022-10-16T08:28:55;3.20;;;1.80;;
19038;SDS011;9652;49.014;12.052;2022-10-16T08:31:22;2.53;;;1.93;;
19038;SDS011;9652;49.014;12.052;2022-10-16T08:33:51;3.90;;;2.37;;
19038;SDS011;9652;49.014;12.052;2022-10-16T08:36:19;3.07;;;2.50;;
19038;SDS011;9652;49.014;12.052;2022-10-16T08:38:47;2.77;;;1.97;;
19038;SDS011;9652;49.014;12.052;2022-10-16T08:44:43;2.93;;;2.27;;
19038;SDS011;9652;49.014;12.052;2022-10-16T08:47:48;15.47;;;7.47;;
19038;SDS011;9652;49.014;12.052;2022-10-16T08:50:27;9.57;;;4.60;;
19038;SDS011;9652;49.014;12.052;2022-10-16T08:52:57;6.27;;;3.93;;
19038;SDS011;9652;49.014;12.052;2022-10-16T08:55:30;4.60;;;3.13;;
19038;SDS011;9652;49.014;12.052;2022-10-16T08:58:09;6.43;;;3.03;;
19038;SDS011;9652;49.014;12.052;2022-10-16T09:00:41;4.93;;;3.50;;
19038;SDS011;9652;49.014;12.052;2022-10-16T09:03:15;2.60;;;2.30;;
19038;SDS011;9652;49.014;12.052;2022-10-16T09:05:54;4.93;;;2.40;;
19038;SDS011;9652;49.014;12.052;2022-10-16T09:08:39;4.43;;;2.40;;
19038;SDS011;9652;49.014;12.052;2022-10-16T09:11:19;2.13;;;1.70;;
19038;SDS011;9652;49.014;12.052;2022-10-16T09:14:06;2.10;;;1.90;;
19038;SDS011;9652;49.014;12.052;2022-10-16T09:17:06;3.07;;;2.20;;
19038;SDS011;9652;49.014;12.052;2022-10-16T09:19:54;2.30;;;2.00;;
19038;SDS011;9652;49.014;12.052;2022-10-16T09:22:34;3.83;;;1.60;;
19038;SDS011;9652;49.014;12.052;2022-10-16T09:25:05;2.90;;;1.80;;
19038;SDS011;9652;49.014;12.052;2022-10-16T09:27:40;2.00;;;1.63;;
19038;SDS011;9652;49.014;12.052;2022-10-16T09:30:11;2.70;;;2.13;;
19038;SDS011;9652;49.014;12.052;2022-10-16T09:32:44;3.03;;;1.80;;
19038;SDS011;9652;49.014;12.052;2022-10-16T09:35:15;2.30;;;1.37;;
19038;SDS011;9652;49.014;12.052;2022-10-16T09:37:46;2.23;;;2.00;;
19038;SDS011;9652;49.014;12.052;2022-10-16T09:40:24;2.80;;;1.83;;
19038;SDS011;9652;49.014;12.052;2022-10-16T09:42:56;2.90;;;1.70;;
19038;SDS011;9652;49.014;12.052;2022-10-16T09:45:32;2.40;;;1.63;;
19038;SDS011;9652;49.014;12.052;2022-10-16T09:48:02;5.37;;;1.90;;
19038;SDS011;9652;49.014;12.052;2022-10-16T09:50:39;1.93;;;1.63;;
19038;SDS011;9652;49.014;12.052;2022-10-16T09:53:10;2.97;;;2.00;;
19038;SDS011;9652;49.014;12.052;2022-10-16T09:55:49;2.03;;;1.83;;
19038;SDS011;9652;49.014;12.052;2022-10-16T09:58:20;1.90;;;1.63;;
19038;SDS011;9652;49.014;12.052;2022-10-16T10:00:50;2.00;;;1.60;;
19038;SDS011;9652;49.014;12.052;2022-10-16T10:03:29;3.93;;;2.23;;
19038;SDS011;9652;49.014;12.052;2022-10-16T10:06:07;2.73;;;1.73;;
19038;SDS011;9652;49.014;12.052;2022-10-16T10:08:57;3.17;;;1.53;;
19038;SDS011;9652;49.014;12.052;2022-10-16T10:11:36;2.03;;;1.83;;
19038;SDS011;9652;49.014;12.052;2022-10-16T10:14:23;2.30;;;1.60;;
19038;SDS011;9652;49.014;12.052;2022-10-16T10:17:17;1.93;;;1.60;;
19038;SDS011;9652;49.014;12.052;2022-10-16T10:19:49;4.33;;;1.90;;
19038;SDS011;9652;49.014;12.052;2022-10-16T10:22:22;2.57;;;1.70;;
19038;SDS011;9652;49.014;12.052;2022-10-16T10:28:14;1.87;;;1.70;;
19038;SDS011;9652;49.014;12.052;2022-10-16T10:30:56;2.10;;;1.67;;
19038;SDS011;9652;49.014;12.052;2022-10-16T10:33:31;2.00;;;1.50;;
19038;SDS011;9652;49.014;12.052;2022-10-16T10:36:12;2.20;;;1.60;;
19038;SDS011;9652;49.014;12.052;2022-10-16T10:38:56;1.60;;;1.50;;
19038;SDS011;9652;49.014;12.052;2022-10-16T10:44:50;2.33;;;1.67;;
19038;SDS011;9652;49.014;12.052;2022-10-16T10:47:47;4.07;;;1.60;;
19038;SDS011;9652;49.014;12.052;2022-10-16T10:50:39;2.10;;;1.43;;
19038;SDS011;9652;49.014;12.052;2022-10-16T10:53:18;2.47;;;1.60;;
19038;SDS011;9652;49.014;12.052;2022-10-16T10:56:06;1.53;;;1.30;;
19038;SDS011;9652;49.014;12.052;2022-10-16T10:58:52;1.83;;;1.37;;
19038;SDS011;9652;49.014;12.052;2022-10-16T11:01:54;1.80;;;1.57;;
19038;SDS011;9652;49.014;12.052;2022-10-16T11:04:30;2.03;;;1.60;;
19038;SDS011;9652;49.014;12.052;2022-10-16T11:07:30;2.63;;;1.30;;
19038;SDS011;9652;49.014;12.052;2022-10-16T11:10:09;3.27;;;1.20;;
19038;SDS011;9652;49.014;12.052;2022-10-16T11:12:44;1.57;;;1.43;;
19038;SDS011;9652;49.014;12.052;2022-10-16T11:15:17;2.13;;;1.60;;
19038;SDS011;9652;49.014;12.052;2022-10-16T11:17:50;3.87;;;1.93;;
19038;SDS011;9652;49.014;12.052;2022-10-16T11:20:24;1.30;;;1.10;;
19038;SDS011;9652;49.014;12.052;2022-10-16T11:22:56;3.57;;;1.67;;
19038;SDS011;9652;49.014;12.052;2022-10-16T11:25:35;2.00;;;1.50;;
19038;SDS011;9652;49.014;12.052;2022-10-16T11:28:03;2.23;;;1.57;;
19038;SDS011;9652;49.014;12.052;2022-10-16T11:30:43;1.40;;;1.27;;
19038;SDS011;9652;49.014;12.052;2022-10-16T11:33:21;3.90;;;1.27;;
19038;SDS011;9652;49.014;12.052;2022-10-16T11:35:59;2.50;;;1.17;;
19038;SDS011;9652;49.014;12.052;2022-10-16T11:38:34;2.03;;;1.23;;
19038;SDS011;9652;49.014;12.052;2022-10-16T11:41:13;1.30;;;1.20;;
19038;SDS011;9652;49.014;12.052;2022-10-16T11:43:52;2.97;;;1.90;;
19038;SDS011;9652;49.014;12.052;2022-10-16T11:46:40;2.00;;;1.47;;
19038;SDS011;9652;49.014;12.052;2022-10-16T11:49:18;1.73;;;1.63;;
19038;SDS011;9652;49.014;12.052;2022-10-16T11:51:51;1.80;;;1.37;;
19038;SDS011;9652;49.014;12.052;2022-10-16T11:54:34;1.37;;;1.07;;
19038;SDS011;9652;49.014;12.052;2022-10-16T11:57:13;1.67;;;1.30;;
19038;SDS011;9652;49.014;12.052;2022-10-16T11:59:48;3.07;;;1.23;;
19038;SDS011;9652;49.014;12.052;2022-10-16T12:02:27;3.53;;;1.10;;
19038;SDS011;9652;49.014;12.052;2022-10-16T12:05:15;4.63;;;1.47;;
19038;SDS011;9652;49.014;12.052;2022-10-16T12:07:59;1.40;;;1.30;;
19038;SDS011;9652;49.014;12.052;2022-10-16T12:10:36;1.30;;;1.20;;
19038;SDS011;9652;49.014;12.052;2022-10-16T12:16:05;2.00;;;1.20;;
19038;SDS011;9652;49.014;12.052;2022-10-16T12:18:47;1.53;;;1.07;;
19038;SDS011;9652;49.014;12.052;2022-10-16T12:21:16;1.30;;;1.20;;
19038;SDS011;9652;49.014;12.052;2022-10-16T12:23:49;1.23;;;1.13;;
19038;SDS011;9652;49.014;12.052;2022-10-16T12:26:25;1.17;;;1.07;;
19038;SDS011;9652;49.014;12.052;2022-10-16T12:28:57;1.60;;;1.20;;
19038;SDS011;9652;49.014;12.052;2022-10-16T12:31:44;1.60;;;1.30;;
19038;SDS011;9652;49.014;12.052;2022-10-16T12:34:19;1.30;;;1.10;;
19038;SDS011;9652;49.014;12.052;2022-10-16T12:36:53;1.30;;;1.20;;
19038;SDS011;9652;49.014;12.052;2022-10-16T12:39:23;1.60;;;1.30;;
19038;SDS011;9652;49.014;12.052;2022-10-16T12:42:01;2.90;;;1.13;;
19038;SDS011;9652;49.014;12.052;2022-10-16T12:44:35;1.30;;;1.10;;
19038;SDS011;9652;49.014;12.052;2022-10-16T12:47:02;1.67;;;1.30;;
19038;SDS011;9652;49.014;12.052;2022-10-16T12:49:32;1.40;;;1.30;;
19038;SDS011;9652;49.014;12.052;2022-10-16T12:52:05;1.37;;;0.93;;
19038;SDS011;9652;49.014;12.052;2022-10-16T12:54:55;1.83;;;1.40;;
19038;SDS011;9652;49.014;12.052;2022-10-16T12:57:35;1.40;;;1.20;;
19038;SDS011;9652;49.014;12.052;2022-10-16T13:00:23;1.47;;;1.37;;
19038;SDS011;9652;49.014;12.052;2022-10-16T13:03:08;1.10;;;1.00;;
19038;SDS011;9652;49.014;12.052;2022-10-16T13:06:17;1.87;;;1.20;;
19038;SDS011;9652;49.014;12.052;2022-10-16T13:09:05;5.33;;;1.07;;
19038;SDS011;9652;49.014;12.052;2022-10-16T13:14:49;3.73;;;1.33;;
19038;SDS011;9652;49.014;12.052;2022-10-16T13:18:06;1.43;;;1.10;;
19038;SDS011;9652;49.014;12.052;2022-10-16T13:20:50;2.10;;;1.00;;
19038;SDS011;9652;49.014;12.052;2022-10-16T13:23:31;1.33;;;0.90;;
19038;SDS011;9652;49.014;12.052;2022-10-16T13:26:11;1.40;;;1.00;;
19038;SDS011;9652;49.014;12.052;2022-10-16T13:28:50;0.97;;;0.90;;
19038;SDS011;9652;49.014;12.052;2022-10-16T13:31:20;1.30;;;1.20;;
19038;SDS011;9652;49.014;12.052;2022-10-16T13:33:50;0.87;;;0.83;;
19038;SDS011;9652;49.014;12.052;2022-10-16T13:36:22;2.17;;;0.90;;
19038;SDS011;9652;49.014;12.052;2022-10-16T13:39:06;1.23;;;0.90;;
19038;SDS011;9652;49.014;12.052;2022-10-16T13:41:39;1.00;;;0.90;;
19038;SDS011;9652;49.014;12.052;2022-10-16T13:44:09;1.13;;;0.63;;
19038;SDS011;9652;49.014;12.052;2022-10-16T13:46:43;2.03;;;0.60;;
19038;SDS011;9652;49.014;12.052;2022-10-16T13:49:13;2.37;;;1.13;;
19038;SDS011;9652;49.014;12.052;2022-10-16T13:51:53;0.87;;;0.70;;
19038;SDS011;9652;49.014;12.052;2022-10-16T13:54:22;1.00;;;0.90;;
19038;SDS011;9652;49.014;12.052;2022-10-16T13:56:50;0.60;;;0.50;;
19038;SDS011;9652;49.014;12.052;2022-10-16T13:59:24;4.47;;;0.80;;
19038;SDS011;9652;49.014;12.052;2022-10-16T14:02:00;1.20;;;0.90;;
19038;SDS011;9652;49.014;12.052;2022-10-16T14:04:42;1.03;;;0.83;;
19038;SDS011;9652;49.014;12.052;2022-10-16T14:07:11;1.17;;;0.80;;
19038;SDS011;9652;49.014;12.052;2022-10-16T14:09:47;0.70;;;0.70;;
19038;SDS011;9652;49.014;12.052;2022-10-16T14:12:16;1.07;;;0.70;;
19038;SDS011;9652;49.014;12.052;2022-10-16T14:14:44;1.63;;;0.90;;
19038;SDS011;9652;49.014;12.052;2022-10-16T14:17:18;1.57;;;0.90;;
19038;SDS011;9652;49.014;12.052;2022-10-16T14:19:49;3.17;;;0.60;;
19038;SDS011;9652;49.014;12.052;2022-10-16T14:22:23;1.93;;;0.80;;
19038;SDS011;9652;49.014;12.052;2022-10-16T14:24:57;1.07;;;0.90;;
19038;SDS011;9652;49.014;12.052;2022-10-16T14:27:28;3.63;;;0.80;;
19038;SDS011;9652;49.014;12.052;2022-10-16T14:30:14;3.13;;;1.07;;
19038;SDS011;9652;49.014;12.052;2022-10-16T14:32:53;1.13;;;0.90;;
19038;SDS011;9652;49.014;12.052;2022-10-16T14:35:24;1.10;;;0.97;;
19038;SDS011;9652;49.014;12.052;2022-10-16T14:37:55;1.73;;;1.00;;
19038;SDS011;9652;49.014;12.052;2022-10-16T14:40:25;1.30;;;1.13;;
19038;SDS011;9652;49.014;12.052;2022-10-16T14:42:54;1.23;;;1.07;;
19038;SDS011;9652;49.014;12.052;2022-10-16T14:45:24;1.60;;;1.13;;
19038;SDS011;9652;49.014;12.052;2022-10-16T14:47:56;1.43;;;1.30;;
19038;SDS011;9652;49.014;12.052;2022-10-16T14:50:26;1.50;;;1.07;;
19038;SDS011;9652;49.014;12.052;2022-10-16T14:52:53;1.93;;;1.40;;
19038;SDS011;9652;49.014;12.052;2022-10-16T14:55:21;1.07;;;0.97;;
19038;SDS011;9652;49.014;12.052;2022-10-16T14:57:48;5.43;;;1.60;;
19038;SDS011;9652;49.014;12.052;2022-10-16T15:00:17;1.33;;;1.00;;
19038;SDS011;9652;49.014;12.052;2022-10-16T15:02:48;1.77;;;1.30;;
19038;SDS011;9652;49.014;12.052;2022-10-16T15:05:18;2.47;;;1.50;;
19038;SDS011;9652;49.014;12.052;2022-10-16T15:07:49;2.50;;;1.30;;
19038;SDS011;9652;49.014;12.052;2022-10-16T15:10:18;1.53;;;1.20;;
19038;SDS011;9652;49.014;12.052;2022-10-16T15:12:48;3.67;;;1.40;;
19038;SDS011;9652;49.014;12.052;2022-10-16T15:15:21;1.90;;;1.33;;
19038;SDS011;9652;49.014;12.052;2022-10-16T15:17:58;2.63;;;1.53;;
19038;SDS011;9652;49.014;12.052;2022-10-16T15:20:29;1.37;;;1.27;;
19038;SDS011;9652;49.014;12.052;2022-10-16T15:22:59;1.60;;;1.50;;
19038;SDS011;9652;49.014;12.052;2022-10-16T15:25:30;2.03;;;1.50;;
19038;SDS011;9652;49.014;12.052;2022-10-16T15:28:01;1.57;;;1.47;;
19038;SDS011;9652;49.014;12.052;2022-10-16T15:30:30;4.37;;;1.80;;
19038;SDS011;9652;49.014;12.052;2022-10-16T15:32:57;2.00;;;1.60;;
19038;SDS011;9652;49.014;12.052;2022-10-16T15:35:25;2.17;;;1.70;;